Skardu Weather



Skardu's Current Weather

Temprature -10.076o broken clouds

broken clouds

Rain: 0 %

Min Temprature-10.076o
Max Temprature-10.076o
Humidity93
Wind Speed0.51 m/h
Sun Rise06:34:52
Sun Set17:47:17
Current Time: 23-Feb-2019 15:32:02
Lat/Lon: 35.29, 75.63




Skardu's Geo Location




Skardu's Weather Forecast

Time Overall Temp Min Temp Max Temp Humidity Wind Speed Rain
23-Feb-2019 (Sat)
17:00:00 light snow -10.750 -10.750 -10.076 93 0.51 m/h 0 %
20:00:00 light snow -11.520 -11.520 -11.016 96 0.57 m/h 0 %
23:00:00 light snow -11.500 -11.500 -11.160 90 0.42 m/h 0 %
24-Feb-2019 (Sun)
02:00:00 light snow -11.810 -11.810 -11.640 93 0.51 m/h 0 %
05:00:00 light snow -12.108 -12.108 -12.108 96 0.61 m/h 0 %
08:00:00 light snow -11.872 -11.872 -11.872 95 0.51 m/h 0 %
11:00:00 light snow -9.926 -9.926 -9.926 92 0.46 m/h 0 %
14:00:00 light snow -9.119 -9.119 -9.119 86 0.17 m/h 0 %
17:00:00 light snow -9.779 -9.779 -9.779 83 0.6 m/h 0 %
20:00:00 light snow -11.882 -11.882 -11.882 90 0.36 m/h 0 %
23:00:00 light snow -13.389 -13.389 -13.389 93 0.41 m/h 0 %
25-Feb-2019 (Mon)
02:00:00 light snow -13.745 -13.745 -13.745 91 0.62 m/h 0 %
05:00:00 light snow -13.898 -13.898 -13.898 87 0.61 m/h 0 %
08:00:00 light snow -13.405 -13.405 -13.405 88 0.27 m/h 0 %
11:00:00 light snow -11.278 -11.278 -11.278 86 0.61 m/h 0 %
14:00:00 light snow -10.477 -10.477 -10.477 84 0.52 m/h 0 %
17:00:00 light snow -11.288 -11.288 -11.288 86 0.56 m/h 0 %
20:00:00 light snow -12.702 -12.702 -12.702 92 0.31 m/h 0 %
23:00:00 light snow -13.833 -13.833 -13.833 96 0.36 m/h 0 %
26-Feb-2019 (Tue)
02:00:00 light snow -14.724 -14.724 -14.724 93 0.51 m/h 0 %
05:00:00 light snow -14.903 -14.903 -14.903 94 0.41 m/h 0 %
08:00:00 light snow -14.343 -14.343 -14.343 95 0.67 m/h 0 %
11:00:00 light snow -12.283 -12.283 -12.283 93 0.72 m/h 0 %
14:00:00 light snow -10.854 -10.854 -10.854 90 0.71 m/h 0 %
17:00:00 light snow -10.936 -10.936 -10.936 87 0.71 m/h 0 %
20:00:00 light snow -11.714 -11.714 -11.714 89 0.62 m/h 0 %
23:00:00 light snow -12.177 -12.177 -12.177 92 0.62 m/h 0 %
27-Feb-2019 (Wed)
02:00:00 light snow -12.719 -12.719 -12.719 92 0.71 m/h 0 %
05:00:00 light snow -13.056 -13.056 -13.056 94 0.7 m/h 0 %
08:00:00 light snow -12.785 -12.785 -12.785 92 0.72 m/h 0 %
11:00:00 light snow -11.130 -11.130 -11.130 88 0.66 m/h 0 %
14:00:00 light snow -10.264 -10.264 -10.264 86 0.6 m/h 0 %
17:00:00 light snow -10.777 -10.777 -10.777 82 0.41 m/h 0 %
20:00:00 light snow -13.308 -13.308 -13.308 92 0.22 m/h 0 %
23:00:00 light snow -14.734 -14.734 -14.734 94 0.37 m/h 0 %
28-Feb-2019 (Thu)
02:00:00 light snow -16.809 -16.809 -16.809 100 0.21 m/h 0 %
05:00:00 clear sky -18.987 -18.987 -18.987 100 0.21 m/h 0 %
08:00:00 clear sky -18.885 -18.885 -18.885 96 0.16 m/h 0 %
11:00:00 clear sky -14.553 -14.553 -14.553 93 0.61 m/h 0 %
14:00:00 light snow -12.371 -12.371 -12.371 90 0.67 m/h 0 %


Skardu's Tourist Spots

Hotels and Restaurants in Skardu

Famous Cities (60)